sensor_id;sensor_type;location;lat;lon;timestamp;pressure;altitude;pressure_sealevel;temperature;humidity
21096;BME280;10706;49.036;12.112;2023-04-28T00:01:13;97741.81;;;8.21;71.00
21096;BME280;10706;49.036;12.112;2023-04-28T00:03:39;97744.34;;;8.34;68.99
21096;BME280;10706;49.036;12.112;2023-04-28T00:06:05;97743.97;;;8.30;69.27
21096;BME280;10706;49.036;12.112;2023-04-28T00:08:31;97735.19;;;8.30;69.86
21096;BME280;10706;49.036;12.112;2023-04-28T00:10:57;97736.09;;;8.42;68.58
21096;BME280;10706;49.036;12.112;2023-04-28T00:13:23;97727.19;;;8.30;68.34
21096;BME280;10706;49.036;12.112;2023-04-28T00:15:49;97733.53;;;8.29;68.59
21096;BME280;10706;49.036;12.112;2023-04-28T00:18:18;97735.31;;;8.35;68.96
21096;BME280;10706;49.036;12.112;2023-04-28T00:20:43;97730.66;;;8.30;69.13
21096;BME280;10706;49.036;12.112;2023-04-28T00:23:09;97731.25;;;8.32;68.45
21096;BME280;10706;49.036;12.112;2023-04-28T00:25:35;97733.53;;;8.29;69.34
21096;BME280;10706;49.036;12.112;2023-04-28T00:28:00;97723.69;;;8.29;69.35
21096;BME280;10706;49.036;12.112;2023-04-28T00:30:29;97722.31;;;8.27;70.11
21096;BME280;10706;49.036;12.112;2023-04-28T00:32:55;97718.47;;;8.23;70.18
21096;BME280;10706;49.036;12.112;2023-04-28T00:35:21;97716.41;;;8.25;69.50
21096;BME280;10706;49.036;12.112;2023-04-28T00:37:47;97722.31;;;8.27;70.20
21096;BME280;10706;49.036;12.112;2023-04-28T00:40:13;97724.38;;;8.25;69.18
21096;BME280;10706;49.036;12.112;2023-04-28T00:42:38;97730.97;;;8.22;68.49
21096;BME280;10706;49.036;12.112;2023-04-28T00:45:05;97718.91;;;8.20;69.71
21096;BME280;10706;49.036;12.112;2023-04-28T00:47:36;97719.94;;;8.18;70.33
21096;BME280;10706;49.036;12.112;2023-04-28T00:50:03;97720.75;;;8.19;69.59
21096;BME280;10706;49.036;12.112;2023-04-28T00:52:32;97727.75;;;8.13;69.92
21096;BME280;10706;49.036;12.112;2023-04-28T00:54:57;97729.25;;;8.09;69.68
21096;BME280;10706;49.036;12.112;2023-04-28T00:57:23;97730.03;;;8.10;68.87
21096;BME280;10706;49.036;12.112;2023-04-28T00:59:49;97724.13;;;8.08;70.57
21096;BME280;10706;49.036;12.112;2023-04-28T01:02:15;97724.50;;;8.11;70.54
21096;BME280;10706;49.036;12.112;2023-04-28T01:04:45;97714.03;;;8.16;69.99
21096;BME280;10706;49.036;12.112;2023-04-28T01:07:11;97708.03;;;8.21;69.54
21096;BME280;10706;49.036;12.112;2023-04-28T01:09:37;97706.66;;;8.18;69.73
21096;BME280;10706;49.036;12.112;2023-04-28T01:12:03;97707.38;;;8.26;69.02
21096;BME280;10706;49.036;12.112;2023-04-28T01:14:28;97710.28;;;8.24;69.27
21096;BME280;10706;49.036;12.112;2023-04-28T01:16:55;97711.72;;;8.20;69.15
21096;BME280;10706;49.036;12.112;2023-04-28T01:19:21;97697.03;;;8.17;69.14
21096;BME280;10706;49.036;12.112;2023-04-28T01:21:48;97697.84;;;8.18;69.74
21096;BME280;10706;49.036;12.112;2023-04-28T01:24:14;97699.84;;;8.23;69.01
21096;BME280;10706;49.036;12.112;2023-04-28T01:26:40;97696.13;;;8.24;69.93
21096;BME280;10706;49.036;12.112;2023-04-28T01:29:06;97701.91;;;8.21;68.86
21096;BME280;10706;49.036;12.112;2023-04-28T01:31:32;97694.59;;;8.16;70.29
21096;BME280;10706;49.036;12.112;2023-04-28T01:33:58;97702.34;;;8.17;70.42
21096;BME280;10706;49.036;12.112;2023-04-28T01:36:24;97705.69;;;8.13;70.45
21096;BME280;10706;49.036;12.112;2023-04-28T01:38:52;97702.19;;;8.12;69.95
21096;BME280;10706;49.036;12.112;2023-04-28T01:41:17;97697.91;;;8.11;69.97
21096;BME280;10706;49.036;12.112;2023-04-28T01:43:43;97688.97;;;8.06;69.98
21096;BME280;10706;49.036;12.112;2023-04-28T01:46:09;97690.53;;;8.13;70.05
21096;BME280;10706;49.036;12.112;2023-04-28T01:48:35;97691.56;;;8.12;69.12
21096;BME280;10706;49.036;12.112;2023-04-28T01:51:01;97689.44;;;8.21;69.66
21096;BME280;10706;49.036;12.112;2023-04-28T01:53:27;97685.44;;;8.12;70.37
21096;BME280;10706;49.036;12.112;2023-04-28T01:55:53;97691.50;;;8.19;69.11
21096;BME280;10706;49.036;12.112;2023-04-28T01:58:19;97689.00;;;8.24;69.80
21096;BME280;10706;49.036;12.112;2023-04-28T02:00:44;97686.59;;;8.16;69.71
21096;BME280;10706;49.036;12.112;2023-04-28T02:03:11;97678.03;;;8.14;69.84
21096;BME280;10706;49.036;12.112;2023-04-28T02:05:36;97681.06;;;8.17;69.66
21096;BME280;10706;49.036;12.112;2023-04-28T02:08:02;97676.94;;;8.22;68.86
21096;BME280;10706;49.036;12.112;2023-04-28T02:10:28;97684.41;;;8.13;69.36
21096;BME280;10706;49.036;12.112;2023-04-28T02:12:54;97687.28;;;8.11;69.11
21096;BME280;10706;49.036;12.112;2023-04-28T02:15:19;97681.16;;;8.11;69.04
21096;BME280;10706;49.036;12.112;2023-04-28T02:17:46;97668.00;;;8.16;69.21
21096;BME280;10706;49.036;12.112;2023-04-28T02:20:12;97662.75;;;8.09;68.88
21096;BME280;10706;49.036;12.112;2023-04-28T02:22:39;97661.72;;;8.10;68.45
21096;BME280;10706;49.036;12.112;2023-04-28T02:25:06;97657.44;;;8.09;69.53
21096;BME280;10706;49.036;12.112;2023-04-28T02:27:33;97657.06;;;8.06;68.80
21096;BME280;10706;49.036;12.112;2023-04-28T02:29:59;97660.16;;;8.03;69.17
21096;BME280;10706;49.036;12.112;2023-04-28T02:32:25;97664.38;;;8.10;68.07
21096;BME280;10706;49.036;12.112;2023-04-28T02:34:54;97655.16;;;8.13;68.96
21096;BME280;10706;49.036;12.112;2023-04-28T02:37:20;97656.38;;;8.10;69.74
21096;BME280;10706;49.036;12.112;2023-04-28T02:39:47;97665.03;;;8.06;69.38
21096;BME280;10706;49.036;12.112;2023-04-28T02:42:12;97655.81;;;8.08;68.73
21096;BME280;10706;49.036;12.112;2023-04-28T02:44:38;97655.31;;;8.00;69.36
21096;BME280;10706;49.036;12.112;2023-04-28T02:47:04;97656.09;;;8.00;69.54
21096;BME280;10706;49.036;12.112;2023-04-28T02:49:30;97653.28;;;7.95;69.40
21096;BME280;10706;49.036;12.112;2023-04-28T02:51:56;97662.31;;;7.94;69.61
21096;BME280;10706;49.036;12.112;2023-04-28T02:54:22;97660.84;;;7.98;69.56
21096;BME280;10706;49.036;12.112;2023-04-28T02:56:57;97664.50;;;7.97;69.42
21096;BME280;10706;49.036;12.112;2023-04-28T02:59:23;97661.41;;;8.00;69.48
21096;BME280;10706;49.036;12.112;2023-04-28T03:01:49;97649.81;;;7.94;71.14
21096;BME280;10706;49.036;12.112;2023-04-28T03:04:16;97644.19;;;8.03;70.28
21096;BME280;10706;49.036;12.112;2023-04-28T03:06:42;97657.13;;;7.99;69.70
21096;BME280;10706;49.036;12.112;2023-04-28T03:09:08;97649.22;;;7.92;69.37
21096;BME280;10706;49.036;12.112;2023-04-28T03:11:35;97639.84;;;7.90;70.85
21096;BME280;10706;49.036;12.112;2023-04-28T03:14:01;97646.56;;;7.92;70.63
21096;BME280;10706;49.036;12.112;2023-04-28T03:16:26;97644.28;;;7.96;70.34
21096;BME280;10706;49.036;12.112;2023-04-28T03:18:52;97645.00;;;8.03;71.05
21096;BME280;10706;49.036;12.112;2023-04-28T03:21:18;97650.19;;;7.98;69.72
21096;BME280;10706;49.036;12.112;2023-04-28T03:23:43;97651.53;;;8.07;69.99
21096;BME280;10706;49.036;12.112;2023-04-28T03:26:09;97641.91;;;8.06;69.68
21096;BME280;10706;49.036;12.112;2023-04-28T03:28:35;97631.50;;;8.05;70.06
21096;BME280;10706;49.036;12.112;2023-04-28T03:31:01;97633.78;;;8.01;69.69
21096;BME280;10706;49.036;12.112;2023-04-28T03:33:27;97633.78;;;8.01;70.42
21096;BME280;10706;49.036;12.112;2023-04-28T03:35:53;97643.19;;;8.04;69.98
21096;BME280;10706;49.036;12.112;2023-04-28T03:38:19;97621.91;;;8.04;69.12
21096;BME280;10706;49.036;12.112;2023-04-28T03:40:45;97618.19;;;8.05;69.01
21096;BME280;10706;49.036;12.112;2023-04-28T03:43:11;97616.97;;;8.07;68.88
21096;BME280;10706;49.036;12.112;2023-04-28T03:45:37;97612.50;;;8.01;69.55
21096;BME280;10706;49.036;12.112;2023-04-28T03:48:03;97607.13;;;8.08;68.55
21096;BME280;10706;49.036;12.112;2023-04-28T03:50:29;97609.00;;;8.07;68.99
21096;BME280;10706;49.036;12.112;2023-04-28T03:52:54;97611.50;;;8.02;69.50
21096;BME280;10706;49.036;12.112;2023-04-28T03:55:20;97618.19;;;8.05;68.92
21096;BME280;10706;49.036;12.112;2023-04-28T03:57:46;97606.03;;;8.15;68.35
21096;BME280;10706;49.036;12.112;2023-04-28T04:00:12;97610.75;;;8.13;69.11
21096;BME280;10706;49.036;12.112;2023-04-28T04:02:38;97607.56;;;8.05;69.60
21096;BME280;10706;49.036;12.112;2023-04-28T04:05:04;97608.63;;;8.04;69.00
21096;BME280;10706;49.036;12.112;2023-04-28T04:07:30;97602.63;;;8.08;68.75
21096;BME280;10706;49.036;12.112;2023-04-28T04:09:56;97585.88;;;8.08;68.66
21096;BME280;10706;49.036;12.112;2023-04-28T04:12:21;97592.72;;;8.15;68.52
21096;BME280;10706;49.036;12.112;2023-04-28T04:14:47;97595.38;;;8.15;67.90
21096;BME280;10706;49.036;12.112;2023-04-28T04:17:13;97591.56;;;8.11;69.27
21096;BME280;10706;49.036;12.112;2023-04-28T04:19:39;97595.59;;;8.14;68.46
21096;BME280;10706;49.036;12.112;2023-04-28T04:22:04;97607.78;;;8.22;67.27
21096;BME280;10706;49.036;12.112;2023-04-28T04:24:30;97607.78;;;8.22;68.40
21096;BME280;10706;49.036;12.112;2023-04-28T04:26:56;97594.69;;;8.20;68.37
21096;BME280;10706;49.036;12.112;2023-04-28T04:29:22;97585.25;;;8.24;68.50
21096;BME280;10706;49.036;12.112;2023-04-28T04:31:47;97579.69;;;8.26;67.94
21096;BME280;10706;49.036;12.112;2023-04-28T04:34:14;97584.50;;;8.35;67.66
21096;BME280;10706;49.036;12.112;2023-04-28T04:36:39;97592.03;;;8.38;67.18
21096;BME280;10706;49.036;12.112;2023-04-28T04:39:05;97588.72;;;8.43;67.88
21096;BME280;10706;49.036;12.112;2023-04-28T04:41:31;97577.03;;;8.44;66.98
21096;BME280;10706;49.036;12.112;2023-04-28T04:43:56;97581.34;;;8.45;68.36
21096;BME280;10706;49.036;12.112;2023-04-28T04:46:22;97584.13;;;8.50;66.63
21096;BME280;10706;49.036;12.112;2023-04-28T04:48:48;97580.88;;;8.48;67.28
21096;BME280;10706;49.036;12.112;2023-04-28T04:51:14;97574.06;;;8.52;66.89
21096;BME280;10706;49.036;12.112;2023-04-28T04:53:40;97568.03;;;8.45;66.85
21096;BME280;10706;49.036;12.112;2023-04-28T04:56:06;97580.34;;;8.40;67.36
21096;BME280;10706;49.036;12.112;2023-04-28T04:58:32;97590.78;;;8.41;67.67
21096;BME280;10706;49.036;12.112;2023-04-28T05:00:58;97592.59;;;8.41;66.65
21096;BME280;10706;49.036;12.112;2023-04-28T05:03:24;97587.50;;;8.57;67.22
21096;BME280;10706;49.036;12.112;2023-04-28T05:05:50;97578.56;;;8.52;66.75
21096;BME280;10706;49.036;12.112;2023-04-28T05:08:16;97572.00;;;8.54;68.09
21096;BME280;10706;49.036;12.112;2023-04-28T05:10:42;97566.31;;;8.51;67.46
21096;BME280;10706;49.036;12.112;2023-04-28T05:13:08;97561.59;;;8.65;67.72
21096;BME280;10706;49.036;12.112;2023-04-28T05:15:34;97557.59;;;8.74;65.83
21096;BME280;10706;49.036;12.112;2023-04-28T05:18:00;97551.91;;;8.70;66.43
21096;BME280;10706;49.036;12.112;2023-04-28T05:20:31;97560.53;;;8.84;67.49
21096;BME280;10706;49.036;12.112;2023-04-28T05:22:57;97565.84;;;8.84;66.50
21096;BME280;10706;49.036;12.112;2023-04-28T05:25:22;97575.63;;;8.72;66.50
21096;BME280;10706;49.036;12.112;2023-04-28T05:27:48;97574.84;;;8.71;68.24
21096;BME280;10706;49.036;12.112;2023-04-28T05:30:14;97571.13;;;8.72;67.05
21096;BME280;10706;49.036;12.112;2023-04-28T05:32:40;97570.31;;;8.72;67.06
21096;BME280;10706;49.036;12.112;2023-04-28T05:35:06;97561.31;;;8.73;66.58
21096;BME280;10706;49.036;12.112;2023-04-28T05:37:38;97563.19;;;8.84;68.12
21096;BME280;10706;49.036;12.112;2023-04-28T05:40:14;97559.38;;;9.04;66.81
21096;BME280;10706;49.036;12.112;2023-04-28T05:42:40;97564.13;;;9.02;66.50
21096;BME280;10706;49.036;12.112;2023-04-28T05:45:06;97566.56;;;9.15;66.25
21096;BME280;10706;49.036;12.112;2023-04-28T05:47:32;97574.22;;;9.11;66.64
21096;BME280;10706;49.036;12.112;2023-04-28T05:49:58;97581.84;;;9.08;68.21
21096;BME280;10706;49.036;12.112;2023-04-28T05:52:24;97592.38;;;9.03;67.04
21096;BME280;10706;49.036;12.112;2023-04-28T05:54:50;97593.28;;;8.97;68.14
21096;BME280;10706;49.036;12.112;2023-04-28T05:57:15;97597.59;;;8.98;68.03
21096;BME280;10706;49.036;12.112;2023-04-28T05:59:54;97601.50;;;8.95;67.49
21096;BME280;10706;49.036;12.112;2023-04-28T06:03:09;97596.69;;;9.15;66.41
21096;BME280;10706;49.036;12.112;2023-04-28T06:05:16;97596.59;;;9.22;67.16
21096;BME280;10706;49.036;12.112;2023-04-28T06:07:44;97593.47;;;9.25;67.59
21096;BME280;10706;49.036;12.112;2023-04-28T06:10:10;97583.25;;;9.10;68.21
21096;BME280;10706;49.036;12.112;2023-04-28T06:12:37;97586.16;;;9.21;66.90
21096;BME280;10706;49.036;12.112;2023-04-28T06:15:04;97582.78;;;9.13;68.47
21096;BME280;10706;49.036;12.112;2023-04-28T06:17:31;97585.50;;;9.25;67.79
21096;BME280;10706;49.036;12.112;2023-04-28T06:19:58;97582.13;;;9.18;67.90
21096;BME280;10706;49.036;12.112;2023-04-28T06:22:27;97582.91;;;9.30;67.89
21096;BME280;10706;49.036;12.112;2023-04-28T06:24:53;97582.03;;;9.37;67.33
21096;BME280;10706;49.036;12.112;2023-04-28T06:27:18;97561.72;;;9.36;66.66
21096;BME280;10706;49.036;12.112;2023-04-28T06:29:50;97571.91;;;9.27;65.77
21096;BME280;10706;49.036;12.112;2023-04-28T06:32:16;97566.44;;;9.10;66.25
21096;BME280;10706;49.036;12.112;2023-04-28T06:34:42;97567.59;;;9.02;67.48
21096;BME280;10706;49.036;12.112;2023-04-28T06:37:08;97554.19;;;9.09;67.06
21096;BME280;10706;49.036;12.112;2023-04-28T06:39:42;97555.00;;;9.21;67.31
21096;BME280;10706;49.036;12.112;2023-04-28T06:42:08;97546.44;;;9.19;67.06
21096;BME280;10706;49.036;12.112;2023-04-28T06:44:37;97539.94;;;9.15;68.14
21096;BME280;10706;49.036;12.112;2023-04-28T06:47:03;97542.59;;;9.03;67.70
21096;BME280;10706;49.036;12.112;2023-04-28T06:49:29;97545.16;;;9.10;68.01
21096;BME280;10706;49.036;12.112;2023-04-28T06:51:55;97549.22;;;9.12;68.37
21096;BME280;10706;49.036;12.112;2023-04-28T06:54:21;97555.25;;;9.20;68.01
21096;BME280;10706;49.036;12.112;2023-04-28T06:56:47;97556.28;;;9.19;68.18
21096;BME280;10706;49.036;12.112;2023-04-28T06:59:13;97567.41;;;9.27;68.49
21096;BME280;10706;49.036;12.112;2023-04-28T07:01:39;97580.38;;;9.36;68.99
21096;BME280;10706;49.036;12.112;2023-04-28T07:04:05;97582.34;;;9.17;68.05
21096;BME280;10706;49.036;12.112;2023-04-28T07:06:31;97589.19;;;9.24;69.25
21096;BME280;10706;49.036;12.112;2023-04-28T07:09:00;97595.78;;;9.33;68.53
21096;BME280;10706;49.036;12.112;2023-04-28T07:11:25;97598.44;;;9.45;69.24
21096;BME280;10706;49.036;12.112;2023-04-28T07:13:54;97600.53;;;9.55;67.38
21096;BME280;10706;49.036;12.112;2023-04-28T07:16:20;97604.59;;;9.34;70.52
21096;BME280;10706;49.036;12.112;2023-04-28T07:18:53;97596.81;;;9.32;71.20
21096;BME280;10706;49.036;12.112;2023-04-28T07:21:19;97602.63;;;9.41;70.98
21096;BME280;10706;49.036;12.112;2023-04-28T07:23:46;97597.88;;;9.55;70.56
21096;BME280;10706;49.036;12.112;2023-04-28T07:26:16;97596.03;;;9.67;70.31
21096;BME280;10706;49.036;12.112;2023-04-28T07:28:43;97589.53;;;9.75;70.22
21096;BME280;10706;49.036;12.112;2023-04-28T07:34:45;97592.66;;;9.84;70.57
21096;BME280;10706;49.036;12.112;2023-04-28T07:37:19;97596.94;;;9.73;73.95
21096;BME280;10706;49.036;12.112;2023-04-28T07:40:31;97582.81;;;9.72;74.06
21096;BME280;10706;49.036;12.112;2023-04-28T07:42:58;97583.63;;;9.61;76.33
21096;BME280;10706;49.036;12.112;2023-04-28T07:46:15;97581.09;;;9.43;77.00
21096;BME280;10706;49.036;12.112;2023-04-28T07:49:05;97580.94;;;9.49;77.75
21096;BME280;10706;49.036;12.112;2023-04-28T07:51:31;97583.28;;;9.22;77.01
21096;BME280;10706;49.036;12.112;2023-04-28T07:53:57;97588.31;;;9.00;80.37
21096;BME280;10706;49.036;12.112;2023-04-28T07:56:24;97584.72;;;8.94;79.38
21096;BME280;10706;49.036;12.112;2023-04-28T07:58:51;97578.13;;;8.97;81.54
21096;BME280;10706;49.036;12.112;2023-04-28T08:01:17;97586.81;;;8.92;80.25
21096;BME280;10706;49.036;12.112;2023-04-28T08:03:43;97577.81;;;9.05;80.80
21096;BME280;10706;49.036;12.112;2023-04-28T08:06:09;97566.94;;;9.07;78.80
21096;BME280;10706;49.036;12.112;2023-04-28T08:08:35;97573.19;;;9.12;80.61
21096;BME280;10706;49.036;12.112;2023-04-28T08:11:01;97577.59;;;9.19;81.08
21096;BME280;10706;49.036;12.112;2023-04-28T08:13:27;97577.94;;;9.22;81.12
21096;BME280;10706;49.036;12.112;2023-04-28T08:15:54;97577.50;;;9.37;80.61
21096;BME280;10706;49.036;12.112;2023-04-28T08:18:22;97561.84;;;9.41;79.93
21096;BME280;10706;49.036;12.112;2023-04-28T08:20:47;97561.03;;;9.40;79.20
21096;BME280;10706;49.036;12.112;2023-04-28T08:23:13;97569.94;;;9.22;80.15
21096;BME280;10706;49.036;12.112;2023-04-28T08:25:39;97571.06;;;8.91;79.95
21096;BME280;10706;49.036;12.112;2023-04-28T08:28:05;97564.91;;;8.90;80.82
21096;BME280;10706;49.036;12.112;2023-04-28T08:30:33;97566.50;;;8.80;81.54
21096;BME280;10706;49.036;12.112;2023-04-28T08:32:59;97565.13;;;8.77;82.88
21096;BME280;10706;49.036;12.112;2023-04-28T08:35:25;97555.50;;;8.76;83.42
21096;BME280;10706;49.036;12.112;2023-04-28T08:37:52;97555.06;;;8.79;86.06
21096;BME280;10706;49.036;12.112;2023-04-28T08:40:18;97560.47;;;8.72;84.14
21096;BME280;10706;49.036;12.112;2023-04-28T08:42:43;97555.69;;;8.63;86.20
21096;BME280;10706;49.036;12.112;2023-04-28T08:45:13;97559.41;;;8.62;86.19
21096;BME280;10706;49.036;12.112;2023-04-28T08:47:41;97556.47;;;8.51;87.77
21096;BME280;10706;49.036;12.112;2023-04-28T08:50:12;97571.41;;;8.52;89.03
21096;BME280;10706;49.036;12.112;2023-04-28T08:52:39;97568.22;;;8.62;89.57
21096;BME280;10706;49.036;12.112;2023-04-28T08:55:11;97566.72;;;8.78;89.04
21096;BME280;10706;49.036;12.112;2023-04-28T08:57:48;97570.81;;;8.92;88.76
21096;BME280;10706;49.036;12.112;2023-04-28T09:00:15;97560.31;;;8.98;89.02
21096;BME280;10706;49.036;12.112;2023-04-28T09:02:41;97563.06;;;9.03;90.11
21096;BME280;10706;49.036;12.112;2023-04-28T09:05:08;97562.50;;;9.01;89.03
21096;BME280;10706;49.036;12.112;2023-04-28T09:07:35;97570.03;;;9.15;90.41
21096;BME280;10706;49.036;12.112;2023-04-28T09:14:11;97570.88;;;9.16;92.23
21096;BME280;10706;49.036;12.112;2023-04-28T09:16:50;97571.28;;;8.89;91.89
21096;BME280;10706;49.036;12.112;2023-04-28T09:19:17;97567.59;;;8.90;91.15
21096;BME280;10706;49.036;12.112;2023-04-28T09:21:55;97571.41;;;8.94;91.22
21096;BME280;10706;49.036;12.112;2023-04-28T09:24:26;97566.56;;;9.03;92.68
21096;BME280;10706;49.036;12.112;2023-04-28T09:27:04;97568.16;;;8.92;92.65
21096;BME280;10706;49.036;12.112;2023-04-28T09:29:52;97564.13;;;8.90;93.25
21096;BME280;10706;49.036;12.112;2023-04-28T09:32:20;97556.94;;;9.02;93.61
21096;BME280;10706;49.036;12.112;2023-04-28T09:34:54;97550.69;;;8.97;94.47
21096;BME280;10706;49.036;12.112;2023-04-28T09:37:25;97534.84;;;9.02;93.85
21096;BME280;10706;49.036;12.112;2023-04-28T09:39:53;97529.97;;;8.99;95.62
21096;BME280;10706;49.036;12.112;2023-04-28T09:42:42;97521.41;;;8.97;94.35
21096;BME280;10706;49.036;12.112;2023-04-28T09:45:10;97519.66;;;8.90;95.54
21096;BME280;10706;49.036;12.112;2023-04-28T09:47:41;97515.97;;;9.03;97.15
21096;BME280;10706;49.036;12.112;2023-04-28T09:50:11;97519.91;;;9.12;96.50
21096;BME280;10706;49.036;12.112;2023-04-28T09:52:41;97514.59;;;9.24;96.13
21096;BME280;10706;49.036;12.112;2023-04-28T09:55:08;97514.13;;;9.27;94.61
21096;BME280;10706;49.036;12.112;2023-04-28T09:57:35;97516.44;;;9.36;95.35
21096;BME280;10706;49.036;12.112;2023-04-28T10:00:02;97499.28;;;9.43;95.16
21096;BME280;10706;49.036;12.112;2023-04-28T10:02:33;97504.25;;;9.40;95.08
21096;BME280;10706;49.036;12.112;2023-04-28T10:04:59;97497.53;;;9.49;96.69
21096;BME280;10706;49.036;12.112;2023-04-28T10:07:26;97488.97;;;9.47;95.21
21096;BME280;10706;49.036;12.112;2023-04-28T10:09:52;97488.03;;;9.41;96.83
21096;BME280;10706;49.036;12.112;2023-04-28T10:12:20;97490.94;;;9.40;96.62
21096;BME280;10706;49.036;12.112;2023-04-28T10:14:48;97494.28;;;9.47;98.32
21096;BME280;10706;49.036;12.112;2023-04-28T10:17:16;97493.38;;;9.41;97.16
21096;BME280;10706;49.036;12.112;2023-04-28T10:19:44;97483.53;;;9.42;97.44
21096;BME280;10706;49.036;12.112;2023-04-28T10:25:30;97477.19;;;9.31;98.93
21096;BME280;10706;49.036;12.112;2023-04-28T10:27:57;97486.31;;;9.23;99.28
21096;BME280;10706;49.036;12.112;2023-04-28T10:30:25;97490.97;;;9.28;99.96
21096;BME280;10706;49.036;12.112;2023-04-28T10:38:07;97495.00;;;9.19;100.00
21096;BME280;10706;49.036;12.112;2023-04-28T10:40:45;97491.19;;;9.14;100.00
21096;BME280;10706;49.036;12.112;2023-04-28T10:43:34;97483.66;;;9.11;100.00
21096;BME280;10706;49.036;12.112;2023-04-28T10:46:00;97487.59;;;9.21;100.00
21096;BME280;10706;49.036;12.112;2023-04-28T10:56:18;97455.63;;;8.97;100.00
21096;BME280;10706;49.036;12.112;2023-04-28T10:58:49;97455.88;;;8.95;100.00
21096;BME280;10706;49.036;12.112;2023-04-28T11:06:25;97453.78;;;9.09;100.00
21096;BME280;10706;49.036;12.112;2023-04-28T11:08:58;97458.28;;;9.21;100.00
21096;BME280;10706;49.036;12.112;2023-04-28T11:11:32;97456.91;;;9.18;100.00
21096;BME280;10706;49.036;12.112;2023-04-28T11:17:01;97444.03;;;9.39;100.00
21096;BME280;10706;49.036;12.112;2023-04-28T11:19:33;97449.34;;;9.50;100.00
21096;BME280;10706;49.036;12.112;2023-04-28T11:22:02;97442.78;;;9.70;100.00
21096;BME280;10706;49.036;12.112;2023-04-28T11:24:30;97441.03;;;9.76;100.00
21096;BME280;10706;49.036;12.112;2023-04-28T11:26:57;97451.00;;;9.80;100.00
21096;BME280;10706;49.036;12.112;2023-04-28T11:29:38;97449.06;;;9.92;100.00
21096;BME280;10706;49.036;12.112;2023-04-28T11:32:09;97439.25;;;9.81;100.00
21096;BME280;10706;49.036;12.112;2023-04-28T11:34:35;97428.75;;;9.75;100.00
21096;BME280;10706;49.036;12.112;2023-04-28T11:37:02;97428.31;;;9.66;100.00
21096;BME280;10706;49.036;12.112;2023-04-28T11:39:30;97435.63;;;9.70;100.00
21096;BME280;10706;49.036;12.112;2023-04-28T11:42:04;97426.28;;;9.85;100.00
21096;BME280;10706;49.036;12.112;2023-04-28T11:44:33;97420.38;;;9.83;100.00
21096;BME280;10706;49.036;12.112;2023-04-28T11:47:01;97427.41;;;9.89;100.00
21096;BME280;10706;49.036;12.112;2023-04-28T11:49:29;97453.28;;;9.88;100.00
21096;BME280;10706;49.036;12.112;2023-04-28T11:51:56;97444.59;;;9.81;100.00
21096;BME280;10706;49.036;12.112;2023-04-28T11:54:27;97426.88;;;9.75;100.00
21096;BME280;10706;49.036;12.112;2023-04-28T11:56:56;97422.84;;;9.72;100.00
21096;BME280;10706;49.036;12.112;2023-04-28T11:59:27;97435.50;;;9.65;100.00
21096;BME280;10706;49.036;12.112;2023-04-28T12:02:00;97425.41;;;9.67;100.00
21096;BME280;10706;49.036;12.112;2023-04-28T12:07:08;97426.94;;;9.92;100.00
21096;BME280;10706;49.036;12.112;2023-04-28T12:09:36;97421.38;;;9.93;100.00
21096;BME280;10706;49.036;12.112;2023-04-28T12:12:27;97423.41;;;10.03;100.00
21096;BME280;10706;49.036;12.112;2023-04-28T12:14:57;97429.97;;;10.12;100.00
21096;BME280;10706;49.036;12.112;2023-04-28T12:17:33;97433.63;;;10.06;100.00
21096;BME280;10706;49.036;12.112;2023-04-28T12:20:10;97439.78;;;10.24;100.00
21096;BME280;10706;49.036;12.112;2023-04-28T12:22:47;97444.09;;;10.25;100.00
21096;BME280;10706;49.036;12.112;2023-04-28T12:25:18;97448.59;;;10.36;100.00
21096;BME280;10706;49.036;12.112;2023-04-28T12:28:02;97452.63;;;10.39;100.00
21096;BME280;10706;49.036;12.112;2023-04-28T12:30:31;97455.84;;;10.41;100.00
21096;BME280;10706;49.036;12.112;2023-04-28T12:32:58;97458.00;;;10.27;100.00
21096;BME280;10706;49.036;12.112;2023-04-28T12:35:25;97457.84;;;10.34;100.00
21096;BME280;10706;49.036;12.112;2023-04-28T12:37:51;97453.66;;;10.55;100.00
21096;BME280;10706;49.036;12.112;2023-04-28T12:40:18;97452.63;;;10.56;100.00
21096;BME280;10706;49.036;12.112;2023-04-28T12:42:44;97449.31;;;10.65;100.00
21096;BME280;10706;49.036;12.112;2023-04-28T12:45:10;97456.63;;;10.70;100.00
21096;BME280;10706;49.036;12.112;2023-04-28T12:47:36;97454.81;;;10.59;100.00
21096;BME280;10706;49.036;12.112;2023-04-28T12:50:06;97448.84;;;10.68;100.00
21096;BME280;10706;49.036;12.112;2023-04-28T12:52:32;97449.53;;;10.64;100.00
21096;BME280;10706;49.036;12.112;2023-04-28T12:55:00;97451.28;;;10.70;100.00
21096;BME280;10706;49.036;12.112;2023-04-28T12:57:26;97448.41;;;10.77;100.00
21096;BME280;10706;49.036;12.112;2023-04-28T12:59:53;97440.50;;;10.65;100.00
21096;BME280;10706;49.036;12.112;2023-04-28T13:02:20;97441.38;;;10.87;100.00
21096;BME280;10706;49.036;12.112;2023-04-28T13:04:46;97434.59;;;10.80;100.00
21096;BME280;10706;49.036;12.112;2023-04-28T13:07:16;97433.78;;;10.79;100.00
21096;BME280;10706;49.036;12.112;2023-04-28T13:09:44;97432.94;;;10.96;100.00
21096;BME280;10706;49.036;12.112;2023-04-28T13:12:11;97435.66;;;11.18;100.00
21096;BME280;10706;49.036;12.112;2023-04-28T13:14:37;97429.53;;;11.17;100.00
21096;BME280;10706;49.036;12.112;2023-04-28T13:17:19;97437.66;;;11.27;100.00
21096;BME280;10706;49.036;12.112;2023-04-28T13:19:45;97436.69;;;11.34;100.00
21096;BME280;10706;49.036;12.112;2023-04-28T13:25:34;97421.22;;;11.36;98.81
21096;BME280;10706;49.036;12.112;2023-04-28T13:28:00;97434.94;;;11.22;99.65
21096;BME280;10706;49.036;12.112;2023-04-28T13:30:26;97424.44;;;11.38;99.09
21096;BME280;10706;49.036;12.112;2023-04-28T13:33:12;97410.06;;;11.22;98.51
21096;BME280;10706;49.036;12.112;2023-04-28T13:35:41;97412.44;;;11.40;98.80
21096;BME280;10706;49.036;12.112;2023-04-28T13:38:07;97412.81;;;11.49;99.47
21096;BME280;10706;49.036;12.112;2023-04-28T13:40:44;97411.88;;;11.60;98.50